createdAt,value
2018-06-02T00:02:14.109Z,33.40
2018-06-02T00:07:05.626Z,35.57
2018-06-02T00:11:57.146Z,35.83
2018-06-02T00:16:48.637Z,36.70
2018-06-02T00:21:40.907Z,35.47
2018-06-02T00:26:33.139Z,35.80
2018-06-02T00:31:25.395Z,34.43
2018-06-02T00:36:17.657Z,38.77
2018-06-02T00:41:09.909Z,36.13
2018-06-02T00:46:01.437Z,38.07
2018-06-02T00:50:52.975Z,39.23
2018-06-02T00:55:45.230Z,39.33
2018-06-02T01:00:36.764Z,39.47
2018-06-02T01:05:29.058Z,37.63
2018-06-02T01:10:20.621Z,37.50
2018-06-02T01:15:12.167Z,37.60
2018-06-02T01:20:04.428Z,38.57
2018-06-02T01:24:56.722Z,39.10
2018-06-02T01:29:48.334Z,39.73
2018-06-02T01:34:39.843Z,41.27
2018-06-02T01:39:32.087Z,37.80
2018-06-02T01:44:23.602Z,36.43
2018-06-02T01:49:15.093Z,39.87
2018-06-02T01:54:06.605Z,41.03
2018-06-02T01:59:02.016Z,40.97
2018-06-02T02:03:53.519Z,39.97
2018-06-02T02:08:45.053Z,40.13
2018-06-02T02:13:36.547Z,38.53
2018-06-02T02:18:28.037Z,37.70
2018-06-02T02:23:19.547Z,39.43
2018-06-02T02:28:11.053Z,38.70
2018-06-02T02:33:02.582Z,38.27
2018-06-02T02:37:54.089Z,38.17
2018-06-02T02:42:46.346Z,40.33
2018-06-02T02:47:38.593Z,37.60
2018-06-02T02:52:30.849Z,38.80
2018-06-02T02:57:23.113Z,41.37
2018-06-02T03:02:14.642Z,37.77
2018-06-02T03:07:07.183Z,39.97
2018-06-02T03:11:59.035Z,41.03
2018-06-02T03:16:51.748Z,39.87
2018-06-02T03:21:44.039Z,41.63
2018-06-02T03:26:36.310Z,39.37
2018-06-02T03:31:27.817Z,39.00
2018-06-02T03:36:19.304Z,39.47
2018-06-02T03:41:10.808Z,40.50
2018-06-02T03:46:03.077Z,41.17
2018-06-02T03:50:54.568Z,40.87
2018-06-02T03:55:46.102Z,42.13
2018-06-02T04:00:37.707Z,43.27
2018-06-02T04:05:29.211Z,44.77
2018-06-02T04:10:20.727Z,44.23
2018-06-02T04:15:13.006Z,45.57
2018-06-02T04:20:04.516Z,44.90
2018-06-02T04:24:57.544Z,42.33
2018-06-02T04:29:49.082Z,43.80
2018-06-02T04:34:40.608Z,41.93
2018-06-02T04:39:32.137Z,40.67
2018-06-02T04:44:23.655Z,41.50
2018-06-02T04:49:15.145Z,42.73
2018-06-02T04:54:07.414Z,43.67
2018-06-02T04:58:58.900Z,42.67
2018-06-02T05:03:50.421Z,42.87
2018-06-02T05:08:41.921Z,41.87
2018-06-02T05:13:33.417Z,40.67
2018-06-02T05:18:24.921Z,36.70
2018-06-02T05:23:16.444Z,33.10
2018-06-02T05:28:08.013Z,33.33
2018-06-02T05:32:59.512Z,33.37
2018-06-02T05:37:51.032Z,30.97
2018-06-02T05:42:42.531Z,26.10
2018-06-02T05:47:34.791Z,24.70
2018-06-02T05:52:27.039Z,22.70
2018-06-02T05:57:19.277Z,21.93
2018-06-02T06:02:11.611Z,20.97
2018-06-02T06:07:03.139Z,19.63
2018-06-02T06:11:54.650Z,17.33
2018-06-02T06:16:46.150Z,17.70
2018-06-02T06:21:38.401Z,16.10
2018-06-02T06:26:29.895Z,17.03
2018-06-02T06:31:21.417Z,16.07
2018-06-02T06:36:12.968Z,16.33
2018-06-02T06:41:04.488Z,15.97
2018-06-02T06:45:55.984Z,16.53
2018-06-02T06:50:47.544Z,15.10
2018-06-02T06:55:39.059Z,15.30
2018-06-02T07:00:30.587Z,14.20
2018-06-02T07:05:22.088Z,13.33
2018-06-02T07:10:14.380Z,14.63
2018-06-02T07:15:05.847Z,14.07
2018-06-02T07:19:57.355Z,13.57
2018-06-02T07:24:50.649Z,13.07
2018-06-02T07:29:42.957Z,12.20
2018-06-02T07:34:34.471Z,10.67
2018-06-02T07:39:26.835Z,11.00
2018-06-02T07:44:18.425Z,10.93
2018-06-02T07:49:09.938Z,10.43
2018-06-02T07:54:01.454Z,10.17
2018-06-02T07:58:52.992Z,9.40
2018-06-02T08:03:44.509Z,9.43
2018-06-02T08:08:36.101Z,10.33
2018-06-02T08:13:27.581Z,10.70
2018-06-02T08:18:19.085Z,10.37
2018-06-02T08:23:11.354Z,10.77
2018-06-02T08:28:03.620Z,10.77
2018-06-02T08:32:55.178Z,10.67
2018-06-02T08:37:46.696Z,10.93
2018-06-02T08:42:39.523Z,10.00
2018-06-02T08:47:31.075Z,7.03
2018-06-02T08:52:23.352Z,6.90
2018-06-02T08:57:14.867Z,6.40
2018-06-02T09:02:06.355Z,6.33
2018-06-02T09:12:03.648Z,6.03
2018-06-02T09:16:55.175Z,5.03
2018-06-02T09:21:46.739Z,5.63
2018-06-02T09:26:38.215Z,5.33
2018-06-02T09:31:29.722Z,5.93
2018-06-02T09:36:22.015Z,5.77
2018-06-02T09:41:13.521Z,4.80
2018-06-02T09:46:05.773Z,5.00
2018-06-02T09:50:58.018Z,5.00
2018-06-02T09:55:50.308Z,4.40
2018-06-02T10:00:41.848Z,4.27
2018-06-02T10:05:33.350Z,4.67
2018-06-02T10:10:24.965Z,4.10
2018-06-02T10:15:17.205Z,4.37
2018-06-02T10:20:09.476Z,6.10
2018-06-02T10:25:02.811Z,3.93
2018-06-02T10:29:54.338Z,4.67
2018-06-02T10:34:46.623Z,4.37
2018-06-02T10:39:38.954Z,5.27
2018-06-02T10:44:30.499Z,4.33
2018-06-02T10:49:22.123Z,3.97
2018-06-02T10:54:13.633Z,4.63
2018-06-02T10:59:05.135Z,4.57
2018-06-02T11:03:56.629Z,3.90
2018-06-02T11:08:48.255Z,3.90
2018-06-02T11:13:39.755Z,4.70
2018-06-02T11:18:31.254Z,4.57
2018-06-02T11:23:22.779Z,4.17
2018-06-02T11:28:14.391Z,4.17
2018-06-02T11:33:05.916Z,4.20
2018-06-02T11:37:57.434Z,4.23
2018-06-02T11:42:48.929Z,3.40
2018-06-02T11:47:41.191Z,3.13
2018-06-02T11:52:34.232Z,3.40
2018-06-02T11:57:25.734Z,3.00
2018-06-02T12:02:17.252Z,2.10
2018-06-02T12:07:08.751Z,1.77
2018-06-02T12:12:00.977Z,2.10
2018-06-02T12:16:52.467Z,1.90
2018-06-02T12:21:43.973Z,2.30
2018-06-02T12:26:36.263Z,2.80
2018-06-02T12:31:27.763Z,2.00
2018-06-02T12:36:20.006Z,1.50
2018-06-02T12:41:12.275Z,1.67
2018-06-02T12:46:03.848Z,2.43
2018-06-02T12:50:55.407Z,1.70
2018-06-02T12:55:46.913Z,2.47
2018-06-02T13:00:38.403Z,1.30
2018-06-02T13:05:30.661Z,1.57
2018-06-02T13:10:22.245Z,1.40
2018-06-02T13:15:13.771Z,1.80
2018-06-02T13:20:05.298Z,2.90
2018-06-02T13:24:57.895Z,2.50
2018-06-02T13:29:50.733Z,1.73
2018-06-02T13:34:42.238Z,1.70
2018-06-02T13:39:33.880Z,1.50
2018-06-02T13:44:25.861Z,1.30
2018-06-02T13:49:18.444Z,1.40
2018-06-02T13:54:10.714Z,1.30
2018-06-02T13:59:02.366Z,1.27
2018-06-02T14:03:54.198Z,1.30
2018-06-02T14:08:46.108Z,1.00
2018-06-02T14:13:37.777Z,1.53
2018-06-02T14:18:29.359Z,1.10
2018-06-02T14:23:20.919Z,1.00
2018-06-02T14:28:13.258Z,1.30
2018-06-02T14:33:04.789Z,1.10
2018-06-02T14:37:57.131Z,1.37
2018-06-02T14:42:48.650Z,1.27
2018-06-02T14:47:40.161Z,1.03
2018-06-02T14:52:31.681Z,1.03
2018-06-02T14:57:23.217Z,1.13
2018-06-02T15:02:14.722Z,1.10
2018-06-02T15:07:06.224Z,1.20
2018-06-02T15:11:57.741Z,1.23
2018-06-02T15:16:49.313Z,1.07
2018-06-02T15:21:40.806Z,1.10
2018-06-02T15:26:32.320Z,1.63
2018-06-02T15:31:23.884Z,1.60
2018-06-02T15:36:15.401Z,1.77
2018-06-02T15:41:06.913Z,1.77
2018-06-02T15:45:59.164Z,1.47
2018-06-02T15:50:51.432Z,1.90
2018-06-02T15:55:43.028Z,1.80
2018-06-02T16:00:34.566Z,2.00
2018-06-02T16:05:26.096Z,2.00
2018-06-02T16:10:17.628Z,1.63
2018-06-02T16:15:09.228Z,2.97
2018-06-02T16:20:00.759Z,2.30
2018-06-02T16:24:52.269Z,2.27
2018-06-02T16:29:43.781Z,2.00
2018-06-02T16:34:36.052Z,2.80
2018-06-02T16:39:28.934Z,1.90
2018-06-02T16:44:20.459Z,1.97
2018-06-02T16:49:11.984Z,2.60
2018-06-02T16:54:04.273Z,2.30
2018-06-02T17:03:53.895Z,1.90
2018-06-02T17:08:45.408Z,2.77
2018-06-02T17:13:36.947Z,1.67
2018-06-02T17:18:28.440Z,1.73
2018-06-02T17:23:20.671Z,1.43
2018-06-02T17:28:12.214Z,1.50
2018-06-02T17:33:03.803Z,1.70
2018-06-02T17:37:55.287Z,1.90
2018-06-02T17:42:46.799Z,2.10
2018-06-02T17:47:38.337Z,1.20
2018-06-02T17:52:29.971Z,2.60
2018-06-02T17:57:21.882Z,2.93
2018-06-02T18:02:13.432Z,2.23
2018-06-02T18:07:04.997Z,2.10
2018-06-02T18:11:58.265Z,2.33
2018-06-02T18:16:49.791Z,3.77
2018-06-02T18:21:41.309Z,2.93
2018-06-02T18:26:32.953Z,2.50
2018-06-02T18:31:24.476Z,2.10
2018-06-02T18:36:15.981Z,2.20
2018-06-02T18:41:07.576Z,3.13
2018-06-02T18:45:59.067Z,3.00
2018-06-02T18:50:50.597Z,7.80
2018-06-02T18:55:42.099Z,3.40
2018-06-02T19:00:34.351Z,2.43
2018-06-02T19:05:25.913Z,3.60
2018-06-02T19:10:17.421Z,2.20
2018-06-02T19:15:10.630Z,1.97
2018-06-02T19:20:02.193Z,4.00
2018-06-02T19:24:54.427Z,2.40
2018-06-02T19:29:45.941Z,3.90
2018-06-02T19:34:37.452Z,2.40
2018-06-02T19:39:29.767Z,2.23
2018-06-02T19:44:21.281Z,2.60
2018-06-02T19:49:12.832Z,2.90
2018-06-02T19:54:04.351Z,3.33
2018-06-02T19:58:55.836Z,2.77
2018-06-02T20:03:48.097Z,2.70
2018-06-02T20:08:40.397Z,3.00
2018-06-02T20:13:32.933Z,2.83
2018-06-02T20:18:24.456Z,2.90
2018-06-02T20:23:15.982Z,3.70
2018-06-02T20:28:07.492Z,3.87
2018-06-02T20:32:59.739Z,3.63
2018-06-02T20:37:51.244Z,3.13
2018-06-02T20:42:42.773Z,3.23
2018-06-02T20:47:34.282Z,3.70
2018-06-02T20:52:25.798Z,3.63
2018-06-02T20:57:18.046Z,3.73
2018-06-02T21:02:10.298Z,3.53
2018-06-02T21:07:02.584Z,3.57
2018-06-02T21:11:54.137Z,3.63
2018-06-02T21:16:45.654Z,3.63
2018-06-02T21:21:37.166Z,3.53
2018-06-02T21:26:28.673Z,4.23
2018-06-02T21:31:20.932Z,4.50
2018-06-02T21:36:13.200Z,4.03
2018-06-02T21:41:04.719Z,3.97
2018-06-02T21:45:56.977Z,3.90
2018-06-02T21:50:48.466Z,3.83
2018-06-02T21:55:40.016Z,4.10
2018-06-02T22:00:32.300Z,5.23
2018-06-02T22:05:23.850Z,4.80
2018-06-02T22:10:15.377Z,4.70
2018-06-02T22:15:06.910Z,5.13
2018-06-02T22:19:58.426Z,4.97
2018-06-02T22:24:50.677Z,5.10
2018-06-02T22:29:42.945Z,5.50
2018-06-02T22:34:34.515Z,5.10
2018-06-02T22:39:26.061Z,5.40
2018-06-02T22:44:17.617Z,5.37
2018-06-02T22:49:09.884Z,5.50
2018-06-02T22:54:02.221Z,5.60
2018-06-02T22:58:54.543Z,6.07
2018-06-02T23:03:46.123Z,5.33
2018-06-02T23:08:38.400Z,5.60
2018-06-02T23:13:29.909Z,6.07
2018-06-02T23:18:22.158Z,5.33
2018-06-02T23:23:13.629Z,5.40
2018-06-02T23:28:05.146Z,5.87
2018-06-02T23:32:56.671Z,5.80
2018-06-02T23:37:48.197Z,6.03
2018-06-02T23:42:40.427Z,6.33
2018-06-02T23:47:32.013Z,5.57
2018-06-02T23:52:23.551Z,6.23
2018-06-02T23:57:15.071Z,7.17
